createdAt,value
2023-01-26T00:00:14.236Z,31.02
2023-01-26T00:03:17.627Z,34.65
2023-01-26T00:06:21.088Z,30.80
2023-01-26T00:09:23.843Z,28.03
2023-01-26T00:12:26.299Z,33.10
2023-01-26T00:15:29.143Z,33.25
2023-01-26T00:18:32.262Z,23.95
2023-01-26T00:21:35.276Z,28.08
2023-01-26T00:24:37.812Z,29.37
2023-01-26T00:27:40.596Z,20.93
2023-01-26T00:30:43.127Z,22.62
2023-01-26T00:33:46.148Z,23.83
2023-01-26T00:36:48.532Z,22.08
2023-01-26T00:39:51.262Z,21.27
2023-01-26T00:42:54.690Z,21.03
2023-01-26T00:45:57.402Z,20.55
2023-01-26T00:49:01.049Z,22.58
2023-01-26T00:52:04.693Z,23.38
2023-01-26T00:55:07.498Z,20.33
2023-01-26T00:58:10.904Z,20.10
2023-01-26T01:01:13.371Z,23.67
2023-01-26T01:04:18.070Z,16.73
2023-01-26T01:07:20.481Z,18.90
2023-01-26T01:10:24.102Z,16.33
2023-01-26T01:13:26.553Z,15.07
2023-01-26T01:16:29.924Z,14.87
2023-01-26T01:19:32.660Z,13.15
2023-01-26T01:22:36.589Z,15.25
2023-01-26T01:25:39.382Z,14.80
2023-01-26T01:28:43.129Z,18.27
2023-01-26T01:31:45.806Z,15.15
2023-01-26T01:34:49.073Z,17.55
2023-01-26T01:37:51.872Z,14.25
2023-01-26T01:40:55.915Z,16.77
2023-01-26T01:44:18.978Z,13.93
2023-01-26T01:47:26.971Z,14.70
2023-01-26T01:50:34.540Z,14.77
2023-01-26T01:53:41.137Z,13.18
2023-01-26T01:56:50.611Z,11.10
2023-01-26T02:00:10.687Z,14.90
2023-01-26T02:03:19.455Z,14.52
2023-01-26T02:06:38.280Z,15.00
2023-01-26T02:10:00.431Z,15.70
2023-01-26T02:13:05.618Z,10.47
2023-01-26T02:16:08.461Z,14.67
2023-01-26T02:19:21.373Z,14.20
2023-01-26T02:22:47.276Z,12.27
2023-01-26T02:25:49.886Z,14.15
2023-01-26T02:28:54.227Z,13.50
2023-01-26T02:31:57.387Z,11.20
2023-01-26T02:35:00.220Z,13.55
2023-01-26T02:38:02.719Z,13.48
2023-01-26T02:41:08.695Z,14.55
2023-01-26T02:44:13.465Z,15.20
2023-01-26T02:47:19.247Z,13.60
2023-01-26T02:50:21.790Z,13.27
2023-01-26T02:53:24.579Z,10.15
2023-01-26T02:56:27.234Z,12.80
2023-01-26T02:59:29.956Z,12.20
2023-01-26T03:02:32.409Z,10.07
2023-01-26T03:05:35.216Z,12.37
2023-01-26T03:08:38.960Z,12.18
2023-01-26T03:11:44.833Z,12.93
2023-01-26T03:15:07.377Z,12.13
2023-01-26T03:18:35.803Z,16.60
2023-01-26T03:21:57.041Z,11.40
2023-01-26T03:25:18.622Z,11.55
2023-01-26T03:28:23.901Z,13.30
2023-01-26T03:31:28.219Z,14.03
2023-01-26T03:34:30.784Z,16.07
2023-01-26T03:37:37.064Z,12.00
2023-01-26T03:40:58.445Z,10.52
2023-01-26T03:44:19.692Z,14.57
2023-01-26T03:47:41.203Z,14.50
2023-01-26T03:51:02.688Z,13.33
2023-01-26T03:54:23.663Z,13.32
2023-01-26T03:57:29.208Z,13.80
2023-01-26T04:00:31.657Z,11.93
2023-01-26T04:03:53.549Z,15.90
2023-01-26T04:07:14.853Z,10.63
2023-01-26T04:10:18.028Z,15.05
2023-01-26T04:13:40.642Z,13.13
2023-01-26T04:17:01.935Z,12.93
2023-01-26T04:20:25.510Z,12.30
2023-01-26T04:23:28.472Z,10.73
2023-01-26T04:26:35.008Z,12.23
2023-01-26T04:29:38.049Z,12.75
2023-01-26T04:32:40.607Z,13.60
2023-01-26T04:35:43.472Z,13.50
2023-01-26T04:38:46.028Z,14.37
2023-01-26T04:41:49.700Z,14.85
2023-01-26T04:44:53.337Z,11.48
2023-01-26T04:47:56.671Z,13.43
2023-01-26T04:51:04.329Z,12.57
2023-01-26T04:54:07.130Z,12.73
2023-01-26T04:57:11.375Z,11.40
2023-01-26T05:00:17.441Z,16.67
2023-01-26T05:03:19.934Z,14.40
2023-01-26T05:06:23.181Z,14.60
2023-01-26T05:09:26.089Z,10.77
2023-01-26T05:12:38.339Z,14.10
2023-01-26T05:15:41.279Z,11.60
2023-01-26T05:18:44.479Z,13.07
2023-01-26T05:21:47.939Z,14.17
2023-01-26T05:24:50.616Z,12.40
2023-01-26T05:27:53.832Z,10.40
2023-01-26T05:30:56.625Z,13.10
2023-01-26T05:33:59.033Z,15.00
2023-01-26T05:37:01.968Z,13.37
2023-01-26T05:40:05.423Z,11.57
2023-01-26T05:43:09.552Z,14.23
2023-01-26T05:46:13.263Z,17.02
2023-01-26T05:49:17.210Z,17.00
2023-01-26T05:52:21.874Z,19.57
2023-01-26T05:55:27.246Z,18.07
2023-01-26T05:58:29.830Z,20.02
2023-01-26T06:01:32.661Z,23.23
2023-01-26T06:04:35.715Z,22.40
2023-01-26T06:07:38.460Z,22.90
2023-01-26T06:10:41.715Z,24.07
2023-01-26T06:13:44.963Z,21.77
2023-01-26T06:16:47.977Z,21.23
2023-01-26T06:19:51.029Z,20.15
2023-01-26T06:22:54.019Z,30.07
2023-01-26T06:26:00.787Z,13.23
2023-01-26T06:29:04.098Z,18.80
2023-01-26T06:32:06.786Z,20.02
2023-01-26T06:35:09.807Z,24.83
2023-01-26T06:38:13.037Z,24.07
2023-01-26T06:41:17.010Z,21.80
2023-01-26T06:44:19.617Z,20.73
2023-01-26T06:47:22.497Z,20.77
2023-01-26T06:50:31.193Z,22.33
2023-01-26T06:53:38.708Z,22.27
2023-01-26T06:56:41.577Z,24.93
2023-01-26T06:59:44.639Z,24.17
2023-01-26T07:02:47.411Z,21.73
2023-01-26T07:05:50.150Z,32.20
2023-01-26T07:08:52.589Z,22.33
2023-01-26T07:11:55.339Z,23.73
2023-01-26T07:14:57.821Z,31.05
2023-01-26T07:18:01.078Z,22.15
2023-01-26T07:21:15.075Z,28.92
2023-01-26T07:24:17.996Z,25.20
2023-01-26T07:27:20.759Z,28.83
2023-01-26T07:30:23.615Z,29.35
2023-01-26T07:33:26.205Z,33.58
2023-01-26T07:36:29.427Z,30.00
2023-01-26T07:39:32.105Z,36.77
2023-01-26T07:42:34.814Z,33.17
2023-01-26T07:45:38.763Z,30.08
2023-01-26T07:48:41.864Z,43.53
2023-01-26T07:51:44.289Z,31.08
2023-01-26T07:54:46.951Z,38.27
2023-01-26T07:57:49.832Z,39.67
2023-01-26T08:00:52.552Z,30.23
2023-01-26T08:03:55.312Z,44.53
2023-01-26T08:06:57.708Z,38.95
2023-01-26T08:10:00.861Z,31.27
2023-01-26T08:13:03.502Z,36.27
2023-01-26T08:16:14.754Z,36.92
2023-01-26T08:19:17.210Z,40.47
2023-01-26T08:22:19.966Z,36.50
2023-01-26T08:25:22.408Z,40.93
2023-01-26T08:28:25.236Z,38.23
2023-01-26T08:31:28.477Z,38.95
2023-01-26T08:34:31.432Z,41.28
2023-01-26T08:37:34.062Z,35.58
2023-01-26T08:40:36.711Z,32.57
2023-01-26T08:43:39.748Z,23.07
2023-01-26T08:46:44.322Z,24.98
2023-01-26T08:49:46.775Z,28.85
2023-01-26T08:52:49.573Z,27.05
2023-01-26T08:55:52.391Z,25.50
2023-01-26T08:58:55.281Z,21.17
2023-01-26T09:01:57.828Z,25.83
2023-01-26T09:05:00.786Z,26.70
2023-01-26T09:08:05.050Z,27.05
2023-01-26T09:11:08.615Z,28.97
2023-01-26T09:14:11.110Z,25.97
2023-01-26T09:17:13.848Z,30.17
2023-01-26T09:20:17.118Z,23.95
2023-01-26T09:23:20.852Z,27.92
2023-01-26T09:26:23.366Z,28.53
2023-01-26T09:29:26.212Z,29.00
2023-01-26T09:32:28.826Z,31.62
2023-01-26T09:35:31.789Z,25.98
2023-01-26T09:38:34.479Z,25.33
2023-01-26T09:41:46.311Z,27.70
2023-01-26T09:45:03.997Z,25.33
2023-01-26T09:48:17.078Z,27.50
2023-01-26T09:51:31.345Z,22.55
2023-01-26T09:54:49.304Z,25.48
2023-01-26T09:57:59.782Z,28.47
2023-01-26T10:01:04.084Z,21.50
2023-01-26T10:04:25.271Z,23.30
2023-01-26T10:07:28.529Z,26.27
2023-01-26T10:10:38.277Z,20.50
2023-01-26T10:13:47.914Z,23.40
2023-01-26T10:16:53.880Z,26.83
2023-01-26T10:20:04.025Z,27.40
2023-01-26T10:23:16.993Z,26.08
2023-01-26T10:26:25.122Z,21.12
2023-01-26T10:29:27.896Z,22.67
2023-01-26T10:32:32.289Z,24.90
2023-01-26T10:35:35.605Z,24.65
2023-01-26T10:38:38.014Z,24.23
2023-01-26T10:41:41.451Z,21.20
2023-01-26T10:44:43.923Z,25.60
2023-01-26T10:48:05.692Z,25.00
2023-01-26T10:51:16.705Z,27.45
2023-01-26T10:54:23.666Z,27.77
2023-01-26T10:57:32.620Z,28.20
2023-01-26T11:00:36.569Z,19.77
2023-01-26T11:03:39.852Z,20.97
2023-01-26T11:06:42.570Z,21.48
2023-01-26T11:09:47.662Z,25.73
2023-01-26T11:13:05.879Z,20.10
2023-01-26T11:16:17.164Z,20.23
2023-01-26T11:19:33.510Z,17.23
2023-01-26T11:22:41.834Z,20.55
2023-01-26T11:25:44.592Z,25.05
2023-01-26T11:29:09.855Z,21.75
2023-01-26T11:32:37.611Z,22.00
2023-01-26T11:35:56.219Z,28.73
2023-01-26T11:39:40.053Z,26.17
2023-01-26T11:43:13.560Z,21.85
2023-01-26T11:46:41.828Z,25.73
2023-01-26T11:49:46.976Z,23.73
2023-01-26T11:53:07.196Z,22.87
2023-01-26T11:56:17.026Z,24.95
2023-01-26T11:59:30.407Z,27.13
2023-01-26T12:02:37.723Z,27.67
2023-01-26T12:05:51.327Z,33.00
2023-01-26T12:09:04.955Z,27.13
2023-01-26T12:12:14.404Z,25.95
2023-01-26T12:15:24.632Z,26.75
2023-01-26T12:18:50.824Z,29.40
2023-01-26T12:22:14.958Z,23.80
2023-01-26T12:25:23.945Z,20.13
2023-01-26T12:28:50.576Z,22.13
2023-01-26T12:32:01.445Z,24.48
2023-01-26T12:35:04.261Z,26.52
2023-01-26T12:38:18.345Z,22.73
2023-01-26T12:41:29.803Z,29.10
2023-01-26T12:44:38.566Z,28.17
2023-01-26T12:47:56.041Z,25.65
2023-01-26T12:51:08.570Z,23.98
2023-01-26T12:54:35.812Z,25.23
2023-01-26T12:58:13.506Z,25.40
2023-01-26T13:01:19.394Z,25.23
2023-01-26T13:04:22.863Z,23.73
2023-01-26T13:07:38.487Z,23.40
2023-01-26T13:10:49.120Z,24.53
2023-01-26T13:13:56.811Z,27.40
2023-01-26T13:17:19.378Z,29.90
2023-01-26T13:20:42.375Z,27.35
2023-01-26T13:23:45.260Z,22.05
2023-01-26T13:26:50.838Z,25.77
2023-01-26T13:29:55.746Z,28.17
2023-01-26T13:33:25.069Z,36.67
2023-01-26T13:36:33.593Z,33.00
2023-01-26T13:39:39.484Z,35.65
2023-01-26T13:42:55.396Z,33.23
2023-01-26T13:46:20.048Z,35.17
2023-01-26T13:49:40.906Z,32.97
2023-01-26T13:52:43.463Z,32.72
2023-01-26T13:55:55.213Z,31.30
2023-01-26T13:59:10.899Z,25.47
2023-01-26T14:02:32.358Z,35.97
2023-01-26T14:05:36.672Z,37.67
2023-01-26T14:08:39.788Z,27.23
2023-01-26T14:11:43.236Z,32.63
2023-01-26T14:14:50.657Z,30.00
2023-01-26T14:17:58.381Z,27.40
2023-01-26T14:21:06.246Z,30.20
2023-01-26T14:24:09.659Z,30.60
2023-01-26T14:27:40.434Z,28.17
2023-01-26T14:30:44.145Z,27.17
2023-01-26T14:33:49.000Z,27.43
2023-01-26T14:37:13.565Z,30.00
2023-01-26T14:40:19.468Z,28.98
2023-01-26T14:43:23.814Z,28.73
2023-01-26T14:46:56.658Z,27.87
2023-01-26T14:50:13.717Z,20.03
2023-01-26T14:53:21.378Z,17.85
2023-01-26T14:56:39.540Z,20.60
2023-01-26T14:59:42.048Z,21.73
2023-01-26T15:02:48.940Z,21.30
2023-01-26T15:06:09.934Z,19.77
2023-01-26T15:09:22.951Z,25.48
2023-01-26T15:12:25.396Z,24.65
2023-01-26T15:15:30.904Z,26.25
2023-01-26T15:18:34.648Z,20.03
2023-01-26T15:21:44.376Z,26.63
2023-01-26T15:24:58.837Z,23.55
2023-01-26T15:28:01.788Z,24.40
2023-01-26T15:31:04.965Z,19.67
2023-01-26T15:34:37.851Z,23.10
2023-01-26T15:37:40.416Z,20.83
2023-01-26T15:40:43.245Z,18.70
2023-01-26T15:43:45.698Z,19.92
2023-01-26T15:46:48.640Z,21.25
2023-01-26T15:49:51.355Z,19.27
2023-01-26T15:52:54.215Z,19.60
2023-01-26T15:55:58.674Z,21.25
2023-01-26T15:59:01.798Z,21.60
2023-01-26T16:02:05.172Z,23.83
2023-01-26T16:05:16.316Z,19.50
2023-01-26T16:08:19.930Z,18.60
2023-01-26T16:11:28.181Z,19.58
2023-01-26T16:14:30.770Z,22.33
2023-01-26T16:17:33.657Z,20.75
2023-01-26T16:20:38.945Z,21.27
2023-01-26T16:23:41.810Z,20.20
2023-01-26T16:26:44.523Z,18.67
2023-01-26T16:29:47.448Z,28.12
2023-01-26T16:32:50.666Z,28.17
2023-01-26T16:35:54.714Z,27.87
2023-01-26T16:38:57.284Z,26.30
2023-01-26T16:42:00.013Z,23.08
2023-01-26T16:45:02.672Z,21.42
2023-01-26T16:48:12.390Z,24.83
2023-01-26T16:51:19.417Z,23.47
2023-01-26T16:54:22.289Z,26.70
2023-01-26T16:57:24.923Z,26.73
2023-01-26T17:00:27.704Z,29.40
2023-01-26T17:03:30.139Z,27.35
2023-01-26T17:06:32.879Z,29.53
2023-01-26T17:09:35.339Z,31.10
2023-01-26T17:12:38.548Z,26.30
2023-01-26T17:15:40.980Z,27.85
2023-01-26T17:18:45.543Z,30.50
2023-01-26T17:21:47.953Z,30.97
2023-01-26T17:24:50.678Z,29.70
2023-01-26T17:27:53.564Z,29.80
2023-01-26T17:30:57.073Z,25.05
2023-01-26T17:34:01.017Z,30.48
2023-01-26T17:37:04.639Z,29.37
2023-01-26T17:40:10.140Z,27.20
2023-01-26T17:43:12.992Z,24.87
2023-01-26T17:46:18.655Z,26.37
2023-01-26T17:49:21.789Z,26.55
2023-01-26T17:52:24.308Z,23.60
2023-01-26T17:55:27.212Z,21.77
2023-01-26T17:58:29.914Z,22.05
2023-01-26T18:01:32.714Z,22.65
2023-01-26T18:04:35.608Z,23.80
2023-01-26T18:07:38.207Z,20.30
2023-01-26T18:10:41.069Z,25.10
2023-01-26T18:13:44.535Z,21.60
2023-01-26T18:16:48.684Z,21.98
2023-01-26T18:19:51.259Z,23.30
2023-01-26T18:22:53.984Z,20.17
2023-01-26T18:26:03.802Z,20.50
2023-01-26T18:29:07.472Z,20.62
2023-01-26T18:32:10.002Z,19.08
2023-01-26T18:35:13.134Z,26.50
2023-01-26T18:38:15.705Z,20.00
2023-01-26T18:41:20.375Z,22.93
2023-01-26T18:44:22.861Z,20.25
2023-01-26T18:47:25.537Z,18.05
2023-01-26T18:50:28.144Z,23.55
2023-01-26T18:53:31.541Z,24.60
2023-01-26T18:56:34.037Z,22.40
2023-01-26T18:59:36.852Z,18.40
2023-01-26T19:02:39.491Z,23.40
2023-01-26T19:05:42.178Z,23.48
2023-01-26T19:08:45.862Z,24.70
2023-01-26T19:11:48.955Z,21.27
2023-01-26T19:14:51.736Z,21.83
2023-01-26T19:17:54.687Z,20.95
2023-01-26T19:20:58.957Z,21.60
2023-01-26T19:24:08.312Z,22.73
2023-01-26T19:27:10.819Z,23.63
2023-01-26T19:30:14.398Z,22.33
2023-01-26T19:33:28.055Z,24.80
2023-01-26T19:36:33.191Z,26.52
2023-01-26T19:39:36.510Z,25.40
2023-01-26T19:42:39.258Z,27.53
2023-01-26T19:45:46.764Z,26.42
2023-01-26T19:48:49.734Z,26.37
2023-01-26T19:51:53.910Z,25.62
2023-01-26T19:54:56.668Z,23.27
2023-01-26T19:57:59.113Z,21.10
2023-01-26T20:01:08.486Z,22.92
2023-01-26T20:04:14.425Z,23.30
2023-01-26T20:07:17.047Z,28.00
2023-01-26T20:10:19.998Z,24.83
2023-01-26T20:13:22.567Z,20.60
2023-01-26T20:16:28.289Z,24.12
2023-01-26T20:19:31.988Z,29.05
2023-01-26T20:22:34.928Z,26.33
2023-01-26T20:25:37.560Z,23.00
2023-01-26T20:28:40.872Z,22.47
2023-01-26T20:31:45.075Z,19.27
2023-01-26T20:34:47.983Z,23.30
2023-01-26T20:37:50.546Z,19.23
2023-01-26T20:40:53.366Z,21.53
2023-01-26T20:44:00.394Z,24.07
2023-01-26T20:47:04.551Z,19.98
2023-01-26T20:50:08.822Z,21.83
2023-01-26T20:53:11.596Z,21.15
2023-01-26T20:56:14.994Z,21.90
2023-01-26T20:59:19.095Z,22.10
2023-01-26T21:02:21.553Z,27.20
2023-01-26T21:05:24.240Z,25.12
2023-01-26T21:08:26.721Z,19.90
2023-01-26T21:11:30.992Z,23.37
2023-01-26T21:14:33.961Z,19.33
2023-01-26T21:17:36.609Z,21.60
2023-01-26T21:20:38.995Z,23.15
2023-01-26T21:23:41.720Z,24.55
2023-01-26T21:26:44.255Z,23.13
2023-01-26T21:29:46.877Z,23.83
2023-01-26T21:32:52.734Z,23.10
2023-01-26T21:35:57.137Z,21.08
2023-01-26T21:39:00.716Z,22.60
2023-01-26T21:42:03.509Z,22.80
2023-01-26T21:45:24.928Z,20.60
2023-01-26T21:48:35.901Z,21.50
2023-01-26T21:51:57.456Z,23.45
2023-01-26T21:55:00.189Z,19.52
2023-01-26T21:58:21.476Z,19.77
2023-01-26T22:01:25.640Z,23.27
2023-01-26T22:04:30.407Z,19.98
2023-01-26T22:07:32.937Z,20.90
2023-01-26T22:10:35.813Z,21.58
2023-01-26T22:13:38.307Z,21.17
2023-01-26T22:16:43.374Z,20.10
2023-01-26T22:19:45.924Z,18.87
2023-01-26T22:22:48.640Z,22.40
2023-01-26T22:25:51.188Z,21.27
2023-01-26T22:28:56.265Z,18.27
2023-01-26T22:31:58.816Z,22.60
2023-01-26T22:35:01.592Z,22.15
2023-01-26T22:38:03.997Z,18.98
2023-01-26T22:41:07.065Z,25.00
2023-01-26T22:44:09.788Z,18.13
2023-01-26T22:47:12.423Z,22.40
2023-01-26T22:50:15.445Z,18.73
2023-01-26T22:53:18.097Z,20.58
2023-01-26T22:56:21.733Z,21.17
2023-01-26T22:59:24.578Z,21.83
2023-01-26T23:02:27.204Z,18.63
2023-01-26T23:05:34.037Z,20.80
2023-01-26T23:08:37.100Z,21.58
2023-01-26T23:11:39.786Z,16.75
2023-01-26T23:14:42.193Z,22.20
2023-01-26T23:17:44.987Z,20.67
2023-01-26T23:20:47.542Z,23.92
2023-01-26T23:23:50.380Z,18.55
2023-01-26T23:26:52.798Z,21.60
2023-01-26T23:29:55.533Z,22.77
2023-01-26T23:32:58.125Z,18.27
2023-01-26T23:36:01.393Z,16.98
2023-01-26T23:39:03.963Z,22.85
2023-01-26T23:42:06.776Z,19.52
2023-01-26T23:45:09.677Z,21.57
2023-01-26T23:48:13.228Z,19.70
2023-01-26T23:51:16.032Z,19.77
2023-01-26T23:54:18.776Z,20.90
2023-01-26T23:57:21.160Z,21.90
